createdAt,value
2022-12-28T00:02:58.980Z,0
2022-12-28T00:08:18.383Z,0
2022-12-28T00:18:57.016Z,0
2022-12-28T00:24:15.934Z,0
2022-12-28T00:29:34.874Z,0
2022-12-28T00:34:54.349Z,0
2022-12-28T00:40:16.408Z,0
2022-12-28T00:45:32.792Z,0
2022-12-28T00:50:52.470Z,0
2022-12-28T01:01:31.176Z,0
2022-12-28T01:06:50.801Z,0
2022-12-28T01:12:09.992Z,0
2022-12-28T01:17:29.743Z,0
2022-12-28T01:22:49.389Z,0
2022-12-28T01:28:08.920Z,0
2022-12-28T01:33:27.838Z,0
2022-12-28T01:44:05.240Z,0
2022-12-28T01:49:24.574Z,0
2022-12-28T01:54:44.270Z,0
2022-12-28T02:00:03.603Z,0
2022-12-28T02:05:22.424Z,0
2022-12-28T02:10:45.637Z,0
2022-12-28T02:16:00.233Z,0
2022-12-28T02:26:38.888Z,0
2022-12-28T02:31:57.727Z,0
2022-12-28T02:37:16.612Z,0
2022-12-28T02:42:36.234Z,0
2022-12-28T02:53:15.241Z,0
2022-12-28T03:03:53.148Z,0
2022-12-28T03:09:12.773Z,0
2022-12-28T03:19:51.001Z,0
2022-12-28T03:25:10.716Z,0
2022-12-28T03:30:29.907Z,0
2022-12-28T03:35:48.978Z,0
2022-12-28T03:46:36.724Z,0
2022-12-28T03:51:46.319Z,0
2022-12-28T04:02:24.992Z,0
2022-12-28T04:13:02.645Z,0
2022-12-28T04:18:21.704Z,0
2022-12-28T04:28:59.799Z,0
2022-12-28T04:34:19.484Z,0
2022-12-28T04:44:58.355Z,0
2022-12-28T04:50:17.939Z,0
2022-12-28T04:55:37.159Z,0
2022-12-28T05:00:57.356Z,0
2022-12-28T05:06:16.282Z,0
2022-12-28T05:11:35.405Z,0
2022-12-28T05:16:54.280Z,0
2022-12-28T05:27:33.255Z,0
2022-12-28T05:32:52.389Z,0
2022-12-28T05:38:12.042Z,0
2022-12-28T05:43:30.788Z,0
2022-12-28T05:48:49.697Z,0
2022-12-28T05:54:09.359Z,0
2022-12-28T05:59:28.252Z,0
2022-12-28T06:10:06.155Z,0
2022-12-28T06:15:25.907Z,0
2022-12-28T06:20:45.306Z,0
2022-12-28T06:26:04.904Z,0
2022-12-28T06:36:44.250Z,0
2022-12-28T06:42:04.011Z,0
2022-12-28T06:47:23.465Z,1
2022-12-28T06:52:42.670Z,5
2022-12-28T06:58:02.296Z,13
2022-12-28T07:08:41.192Z,63
2022-12-28T07:14:00.053Z,113
2022-12-28T07:19:20.275Z,166
2022-12-28T07:24:39.799Z,218
2022-12-28T07:35:17.244Z,429
2022-12-28T07:40:36.580Z,544
2022-12-28T07:51:14.964Z,942
2022-12-28T08:01:53.385Z,1462
2022-12-28T08:07:12.078Z,1619
2022-12-28T08:17:50.715Z,1706
2022-12-28T08:23:09.863Z,1952
2022-12-28T08:33:49.292Z,2454
2022-12-28T08:39:08.669Z,2460
2022-12-28T08:44:28.063Z,2797
2022-12-28T08:49:47.669Z,3510
2022-12-28T09:00:26.714Z,3864
2022-12-28T09:05:47.906Z,3899
2022-12-28T09:16:24.720Z,4233
2022-12-28T09:21:44.408Z,4320
2022-12-28T09:32:22.892Z,4714
2022-12-28T09:37:42.238Z,4738
2022-12-28T09:43:02.273Z,5285
2022-12-28T09:53:40.215Z,6252
2022-12-28T09:58:59.880Z,6981
2022-12-28T10:09:38.564Z,5603
2022-12-28T10:14:57.111Z,5147
2022-12-28T10:20:16.362Z,5339
2022-12-28T10:25:35.336Z,5115
2022-12-28T10:30:54.874Z,5666
2022-12-28T10:36:14.414Z,5290
2022-12-28T10:41:33.152Z,5707
2022-12-28T10:52:12.289Z,5336
2022-12-28T10:57:31.743Z,5780
2022-12-28T11:08:10.044Z,4800
2022-12-28T11:18:48.807Z,6493
2022-12-28T11:24:07.824Z,5015
2022-12-28T11:34:46.269Z,4242
2022-12-28T11:40:05.708Z,5739
2022-12-28T11:45:24.533Z,5531
2022-12-28T11:50:44.087Z,5615
2022-12-28T12:01:22.844Z,6294
2022-12-28T12:17:21.199Z,3007
2022-12-28T12:22:40.084Z,4693
2022-12-28T12:27:59.268Z,4617
2022-12-28T12:33:16.847Z,5422
2022-12-28T12:43:55.143Z,6840
2022-12-28T12:49:14.760Z,5781
2022-12-28T12:59:53.146Z,5814
2022-12-28T13:05:12.423Z,4251
2022-12-28T13:15:50.533Z,4600
2022-12-28T13:21:12.712Z,2420
2022-12-28T13:26:28.949Z,3046
2022-12-28T13:31:47.336Z,3005
2022-12-28T13:42:25.265Z,4341
2022-12-28T13:47:44.881Z,4859
2022-12-28T13:58:22.942Z,2745
2022-12-28T14:03:46.080Z,2178
2022-12-28T14:09:05.575Z,2038
2022-12-28T14:14:21.684Z,2022
2022-12-28T14:19:41.328Z,1674
2022-12-28T14:25:00.646Z,1744
2022-12-28T14:40:24.180Z,1095
2022-12-28T14:42:52.443Z,903
2022-12-28T14:48:11.636Z,822
2022-12-28T14:53:31.289Z,774
2022-12-28T14:58:51.222Z,695
2022-12-28T15:04:09.913Z,596
2022-12-28T15:09:29.286Z,515
2022-12-28T15:14:48.198Z,380
2022-12-28T15:25:26.001Z,166
2022-12-28T15:30:45.601Z,91
2022-12-28T15:41:24.740Z,36
2022-12-28T15:52:03.238Z,6
2022-12-28T15:57:21.675Z,2
2022-12-28T16:07:59.977Z,0
2022-12-28T16:13:19.267Z,0
2022-12-28T16:29:17.874Z,0
2022-12-28T16:34:37.017Z,0
2022-12-28T16:45:15.195Z,0
2022-12-28T16:50:34.507Z,0
2022-12-28T17:01:13.178Z,0
2022-12-28T17:06:41.230Z,0
2022-12-28T17:17:10.773Z,0
2022-12-28T17:27:49.734Z,0
2022-12-28T17:33:08.813Z,0
2022-12-28T17:38:27.872Z,0
2022-12-28T17:43:46.678Z,0
2022-12-28T17:49:06.406Z,0
2022-12-28T17:54:25.412Z,0
2022-12-28T17:59:44.831Z,0
2022-12-28T18:05:05.014Z,0
2022-12-28T18:10:23.859Z,0
2022-12-28T18:15:43.057Z,0
2022-12-28T18:21:02.585Z,0
2022-12-28T18:26:21.973Z,0
2022-12-28T18:31:41.515Z,0
2022-12-28T18:42:19.720Z,0
2022-12-28T18:47:38.970Z,0
2022-12-28T18:52:57.912Z,0
2022-12-28T18:58:17.043Z,0
2022-12-28T19:03:36.844Z,0
2022-12-28T19:08:55.580Z,0
2022-12-28T19:14:14.557Z,0
2022-12-28T19:24:52.552Z,0
2022-12-28T19:30:11.959Z,0
2022-12-28T19:35:31.122Z,0
2022-12-28T19:40:50.098Z,0
2022-12-28T19:51:31.537Z,0
2022-12-28T19:56:48.424Z,0
2022-12-28T20:02:07.245Z,0
2022-12-28T20:07:26.723Z,0
2022-12-28T20:12:45.965Z,0
2022-12-28T20:23:24.175Z,0
2022-12-28T20:34:01.839Z,0
2022-12-28T20:39:20.644Z,0
2022-12-28T20:49:59.048Z,0
2022-12-28T20:55:18.670Z,0
2022-12-28T21:00:37.714Z,0
2022-12-28T21:05:57.112Z,0
2022-12-28T21:11:17.140Z,0
2022-12-28T21:16:36.248Z,0
2022-12-28T21:21:54.778Z,0
2022-12-28T21:32:34.085Z,0
2022-12-28T21:37:53.421Z,0
2022-12-28T21:43:12.479Z,0
2022-12-28T21:48:31.778Z,0
2022-12-28T21:53:51.021Z,0
2022-12-28T21:59:10.329Z,0
2022-12-28T22:04:29.597Z,0
2022-12-28T22:15:08.073Z,0
2022-12-28T22:20:27.732Z,0
2022-12-28T22:31:07.016Z,0
2022-12-28T22:36:25.880Z,0
2022-12-28T22:47:03.840Z,0
2022-12-28T22:57:42.376Z,0
2022-12-28T23:03:01.366Z,0
2022-12-28T23:08:20.587Z,0
2022-12-28T23:13:39.387Z,0
2022-12-28T23:24:17.324Z,0
2022-12-28T23:34:56.178Z,0
2022-12-28T23:40:15.445Z,0
2022-12-28T23:50:53.980Z,0
2022-12-28T23:56:13.615Z,0
